sensor_id;sensor_type;location;lat;lon;timestamp;temperature;humidity
18721;DHT22;9489;50.948;3.114;2022-11-13T00:01:53;8.30;99.90
18721;DHT22;9489;50.948;3.114;2022-11-13T00:04:18;8.40;99.90
18721;DHT22;9489;50.948;3.114;2022-11-13T00:06:44;8.40;99.90
18721;DHT22;9489;50.948;3.114;2022-11-13T00:09:12;8.40;99.90
18721;DHT22;9489;50.948;3.114;2022-11-13T00:11:38;8.40;99.90
18721;DHT22;9489;50.948;3.114;2022-11-13T00:14:03;8.40;99.90
18721;DHT22;9489;50.948;3.114;2022-11-13T00:16:29;8.30;99.90
18721;DHT22;9489;50.948;3.114;2022-11-13T00:18:55;8.40;99.90
18721;DHT22;9489;50.948;3.114;2022-11-13T00:21:23;8.40;99.90
18721;DHT22;9489;50.948;3.114;2022-11-13T00:23:50;8.40;99.90
18721;DHT22;9489;50.948;3.114;2022-11-13T00:26:20;8.50;99.90
18721;DHT22;9489;50.948;3.114;2022-11-13T00:28:46;8.50;99.90
18721;DHT22;9489;50.948;3.114;2022-11-13T00:31:14;8.30;99.90
18721;DHT22;9489;50.948;3.114;2022-11-13T00:33:40;8.40;99.90
18721;DHT22;9489;50.948;3.114;2022-11-13T00:36:13;8.40;99.90
18721;DHT22;9489;50.948;3.114;2022-11-13T00:38:39;8.30;99.90
18721;DHT22;9489;50.948;3.114;2022-11-13T00:41:05;8.20;99.90
18721;DHT22;9489;50.948;3.114;2022-11-13T00:43:30;8.20;99.90
18721;DHT22;9489;50.948;3.114;2022-11-13T00:45:56;8.20;99.90
18721;DHT22;9489;50.948;3.114;2022-11-13T00:48:22;8.10;99.90
18721;DHT22;9489;50.948;3.114;2022-11-13T00:50:48;8.10;99.90
18721;DHT22;9489;50.948;3.114;2022-11-13T00:53:13;8.10;99.90
18721;DHT22;9489;50.948;3.114;2022-11-13T00:55:40;8.00;99.90
18721;DHT22;9489;50.948;3.114;2022-11-13T00:58:06;7.90;99.90
18721;DHT22;9489;50.948;3.114;2022-11-13T01:00:32;7.90;99.90
18721;DHT22;9489;50.948;3.114;2022-11-13T01:02:58;7.90;99.90
18721;DHT22;9489;50.948;3.114;2022-11-13T01:05:24;7.90;99.90
18721;DHT22;9489;50.948;3.114;2022-11-13T01:07:50;7.80;99.90
18721;DHT22;9489;50.948;3.114;2022-11-13T01:10:16;7.70;99.90
18721;DHT22;9489;50.948;3.114;2022-11-13T01:12:41;7.60;99.90
18721;DHT22;9489;50.948;3.114;2022-11-13T01:15:07;7.60;99.90
18721;DHT22;9489;50.948;3.114;2022-11-13T01:17:33;7.60;99.90
18721;DHT22;9489;50.948;3.114;2022-11-13T01:19:59;7.60;99.90
18721;DHT22;9489;50.948;3.114;2022-11-13T01:22:25;7.60;99.90
18721;DHT22;9489;50.948;3.114;2022-11-13T01:24:50;7.60;99.90
18721;DHT22;9489;50.948;3.114;2022-11-13T01:27:16;7.60;99.90
18721;DHT22;9489;50.948;3.114;2022-11-13T01:29:42;7.60;99.90
18721;DHT22;9489;50.948;3.114;2022-11-13T01:32:07;7.50;99.90
18721;DHT22;9489;50.948;3.114;2022-11-13T01:34:33;7.50;99.90
18721;DHT22;9489;50.948;3.114;2022-11-13T01:36:59;7.50;99.90
18721;DHT22;9489;50.948;3.114;2022-11-13T01:39:25;7.40;99.90
18721;DHT22;9489;50.948;3.114;2022-11-13T01:41:50;7.20;99.90
18721;DHT22;9489;50.948;3.114;2022-11-13T01:44:17;7.20;99.90
18721;DHT22;9489;50.948;3.114;2022-11-13T01:46:52;7.30;99.90
18721;DHT22;9489;50.948;3.114;2022-11-13T01:49:35;7.40;99.90
18721;DHT22;9489;50.948;3.114;2022-11-13T01:54:46;7.30;99.90
18721;DHT22;9489;50.948;3.114;2022-11-13T01:57:13;7.30;99.90
18721;DHT22;9489;50.948;3.114;2022-11-13T01:59:44;7.20;99.90
18721;DHT22;9489;50.948;3.114;2022-11-13T02:02:11;7.20;99.90
18721;DHT22;9489;50.948;3.114;2022-11-13T02:04:37;7.20;99.90
18721;DHT22;9489;50.948;3.114;2022-11-13T02:07:08;7.30;99.90
18721;DHT22;9489;50.948;3.114;2022-11-13T02:09:43;7.20;99.90
18721;DHT22;9489;50.948;3.114;2022-11-13T02:12:12;7.20;99.90
18721;DHT22;9489;50.948;3.114;2022-11-13T02:14:41;7.20;99.90
18721;DHT22;9489;50.948;3.114;2022-11-13T02:17:10;7.20;99.90
18721;DHT22;9489;50.948;3.114;2022-11-13T02:19:43;7.10;99.90
18721;DHT22;9489;50.948;3.114;2022-11-13T02:24:43;7.10;99.90
18721;DHT22;9489;50.948;3.114;2022-11-13T02:27:15;7.10;99.90
18721;DHT22;9489;50.948;3.114;2022-11-13T02:29:42;7.00;99.90
18721;DHT22;9489;50.948;3.114;2022-11-13T02:32:07;7.00;99.90
18721;DHT22;9489;50.948;3.114;2022-11-13T02:34:33;6.90;99.90
18721;DHT22;9489;50.948;3.114;2022-11-13T02:36:58;6.90;99.90
18721;DHT22;9489;50.948;3.114;2022-11-13T02:39:24;6.90;99.90
18721;DHT22;9489;50.948;3.114;2022-11-13T02:41:50;6.90;99.90
18721;DHT22;9489;50.948;3.114;2022-11-13T02:44:15;6.80;99.90
18721;DHT22;9489;50.948;3.114;2022-11-13T02:46:41;6.90;99.90
18721;DHT22;9489;50.948;3.114;2022-11-13T02:49:06;7.00;99.90
18721;DHT22;9489;50.948;3.114;2022-11-13T02:51:32;6.90;99.90
18721;DHT22;9489;50.948;3.114;2022-11-13T02:53:58;6.80;99.90
18721;DHT22;9489;50.948;3.114;2022-11-13T02:56:23;6.80;99.90
18721;DHT22;9489;50.948;3.114;2022-11-13T02:58:49;6.80;99.90
18721;DHT22;9489;50.948;3.114;2022-11-13T03:01:15;6.80;99.90
18721;DHT22;9489;50.948;3.114;2022-11-13T03:03:40;6.80;99.90
18721;DHT22;9489;50.948;3.114;2022-11-13T03:06:06;6.80;99.90
18721;DHT22;9489;50.948;3.114;2022-11-13T03:08:32;6.70;99.90
18721;DHT22;9489;50.948;3.114;2022-11-13T03:10:57;6.80;99.90
18721;DHT22;9489;50.948;3.114;2022-11-13T03:13:23;6.80;99.90
18721;DHT22;9489;50.948;3.114;2022-11-13T03:15:48;6.60;99.90
18721;DHT22;9489;50.948;3.114;2022-11-13T03:18:14;6.60;99.90
18721;DHT22;9489;50.948;3.114;2022-11-13T03:20:42;6.70;99.90
18721;DHT22;9489;50.948;3.114;2022-11-13T03:23:08;6.70;99.90
18721;DHT22;9489;50.948;3.114;2022-11-13T03:25:33;6.70;99.90
18721;DHT22;9489;50.948;3.114;2022-11-13T03:27:59;6.60;99.90
18721;DHT22;9489;50.948;3.114;2022-11-13T03:30:26;6.70;99.90
18721;DHT22;9489;50.948;3.114;2022-11-13T03:32:55;6.60;99.90
18721;DHT22;9489;50.948;3.114;2022-11-13T03:35:24;6.60;99.90
18721;DHT22;9489;50.948;3.114;2022-11-13T03:37:50;6.60;99.90
18721;DHT22;9489;50.948;3.114;2022-11-13T03:40:16;6.60;99.90
18721;DHT22;9489;50.948;3.114;2022-11-13T03:42:42;6.50;99.90
18721;DHT22;9489;50.948;3.114;2022-11-13T03:45:07;6.50;99.90
18721;DHT22;9489;50.948;3.114;2022-11-13T03:47:33;6.50;99.90
18721;DHT22;9489;50.948;3.114;2022-11-13T03:49:59;6.50;99.90
18721;DHT22;9489;50.948;3.114;2022-11-13T03:52:24;6.50;99.90
18721;DHT22;9489;50.948;3.114;2022-11-13T03:54:50;6.50;99.90
18721;DHT22;9489;50.948;3.114;2022-11-13T03:57:15;6.50;99.90
18721;DHT22;9489;50.948;3.114;2022-11-13T03:59:41;6.40;99.90
18721;DHT22;9489;50.948;3.114;2022-11-13T04:02:07;6.40;99.90
18721;DHT22;9489;50.948;3.114;2022-11-13T04:04:32;6.40;99.90
18721;DHT22;9489;50.948;3.114;2022-11-13T04:06:58;6.50;99.90
18721;DHT22;9489;50.948;3.114;2022-11-13T04:09:24;6.50;99.90
18721;DHT22;9489;50.948;3.114;2022-11-13T04:11:49;6.60;99.90
18721;DHT22;9489;50.948;3.114;2022-11-13T04:14:15;6.60;99.90
18721;DHT22;9489;50.948;3.114;2022-11-13T04:16:41;6.60;99.90
18721;DHT22;9489;50.948;3.114;2022-11-13T04:19:06;6.70;99.90
18721;DHT22;9489;50.948;3.114;2022-11-13T04:21:32;6.70;99.90
18721;DHT22;9489;50.948;3.114;2022-11-13T04:23:58;6.80;99.90
18721;DHT22;9489;50.948;3.114;2022-11-13T04:26:23;6.80;99.90
18721;DHT22;9489;50.948;3.114;2022-11-13T04:28:49;6.90;99.90
18721;DHT22;9489;50.948;3.114;2022-11-13T04:31:14;6.80;99.90
18721;DHT22;9489;50.948;3.114;2022-11-13T04:33:40;6.90;99.90
18721;DHT22;9489;50.948;3.114;2022-11-13T04:36:06;7.00;99.90
18721;DHT22;9489;50.948;3.114;2022-11-13T04:38:32;7.00;99.90
18721;DHT22;9489;50.948;3.114;2022-11-13T04:40:57;7.00;99.90
18721;DHT22;9489;50.948;3.114;2022-11-13T04:43:41;7.00;99.90
18721;DHT22;9489;50.948;3.114;2022-11-13T04:46:07;7.10;99.90
18721;DHT22;9489;50.948;3.114;2022-11-13T04:48:32;7.10;99.90
18721;DHT22;9489;50.948;3.114;2022-11-13T04:50:58;7.10;99.90
18721;DHT22;9489;50.948;3.114;2022-11-13T04:53:24;7.20;99.90
18721;DHT22;9489;50.948;3.114;2022-11-13T04:55:51;7.30;99.90
18721;DHT22;9489;50.948;3.114;2022-11-13T04:58:18;7.30;99.90
18721;DHT22;9489;50.948;3.114;2022-11-13T05:00:43;7.30;99.90
18721;DHT22;9489;50.948;3.114;2022-11-13T05:03:09;7.30;99.90
18721;DHT22;9489;50.948;3.114;2022-11-13T05:05:35;7.30;99.90
18721;DHT22;9489;50.948;3.114;2022-11-13T05:08:00;7.40;99.90
18721;DHT22;9489;50.948;3.114;2022-11-13T05:10:26;7.30;99.90
18721;DHT22;9489;50.948;3.114;2022-11-13T05:12:55;7.30;99.90
18721;DHT22;9489;50.948;3.114;2022-11-13T05:15:20;7.40;99.90
18721;DHT22;9489;50.948;3.114;2022-11-13T05:17:48;7.40;99.90
18721;DHT22;9489;50.948;3.114;2022-11-13T05:20:14;7.40;99.90
18721;DHT22;9489;50.948;3.114;2022-11-13T05:22:39;7.40;99.90
18721;DHT22;9489;50.948;3.114;2022-11-13T05:25:05;7.40;99.90
18721;DHT22;9489;50.948;3.114;2022-11-13T05:27:31;7.30;99.90
18721;DHT22;9489;50.948;3.114;2022-11-13T05:29:56;7.20;99.90
18721;DHT22;9489;50.948;3.114;2022-11-13T05:32:22;7.20;99.90
18721;DHT22;9489;50.948;3.114;2022-11-13T05:34:48;7.20;99.90
18721;DHT22;9489;50.948;3.114;2022-11-13T05:37:13;7.20;99.90
18721;DHT22;9489;50.948;3.114;2022-11-13T05:39:39;7.10;99.90
18721;DHT22;9489;50.948;3.114;2022-11-13T05:42:04;7.10;99.90
18721;DHT22;9489;50.948;3.114;2022-11-13T05:44:30;7.20;99.90
18721;DHT22;9489;50.948;3.114;2022-11-13T05:46:56;7.10;99.90
18721;DHT22;9489;50.948;3.114;2022-11-13T05:49:22;7.10;99.90
18721;DHT22;9489;50.948;3.114;2022-11-13T05:51:47;7.00;99.90
18721;DHT22;9489;50.948;3.114;2022-11-13T05:54:13;7.00;99.90
18721;DHT22;9489;50.948;3.114;2022-11-13T05:56:38;7.10;99.90
18721;DHT22;9489;50.948;3.114;2022-11-13T05:59:05;7.10;99.90
18721;DHT22;9489;50.948;3.114;2022-11-13T06:01:35;7.10;99.90
18721;DHT22;9489;50.948;3.114;2022-11-13T06:04:02;7.10;99.90
18721;DHT22;9489;50.948;3.114;2022-11-13T06:06:29;7.10;99.90
18721;DHT22;9489;50.948;3.114;2022-11-13T06:08:56;7.20;99.90
18721;DHT22;9489;50.948;3.114;2022-11-13T06:11:24;7.10;99.90
18721;DHT22;9489;50.948;3.114;2022-11-13T06:13:50;7.00;99.90
18721;DHT22;9489;50.948;3.114;2022-11-13T06:16:23;7.10;99.90
18721;DHT22;9489;50.948;3.114;2022-11-13T06:18:49;7.10;99.90
18721;DHT22;9489;50.948;3.114;2022-11-13T06:21:21;7.10;99.90
18721;DHT22;9489;50.948;3.114;2022-11-13T06:23:47;7.10;99.90
18721;DHT22;9489;50.948;3.114;2022-11-13T06:26:15;7.20;99.90
18721;DHT22;9489;50.948;3.114;2022-11-13T06:28:42;7.20;99.90
18721;DHT22;9489;50.948;3.114;2022-11-13T06:31:17;7.10;99.90
18721;DHT22;9489;50.948;3.114;2022-11-13T06:33:44;7.00;99.90
18721;DHT22;9489;50.948;3.114;2022-11-13T06:36:12;7.00;99.90
18721;DHT22;9489;50.948;3.114;2022-11-13T06:38:39;7.00;99.90
18721;DHT22;9489;50.948;3.114;2022-11-13T06:41:06;7.00;99.90
18721;DHT22;9489;50.948;3.114;2022-11-13T06:43:33;7.00;99.90
18721;DHT22;9489;50.948;3.114;2022-11-13T06:46:06;7.00;99.90
18721;DHT22;9489;50.948;3.114;2022-11-13T06:48:32;7.00;99.90
18721;DHT22;9489;50.948;3.114;2022-11-13T06:51:03;6.90;99.90
18721;DHT22;9489;50.948;3.114;2022-11-13T06:53:30;7.00;99.90
18721;DHT22;9489;50.948;3.114;2022-11-13T06:55:56;7.00;99.90
18721;DHT22;9489;50.948;3.114;2022-11-13T06:58:22;7.10;99.90
18721;DHT22;9489;50.948;3.114;2022-11-13T07:00:48;7.00;99.90
18721;DHT22;9489;50.948;3.114;2022-11-13T07:03:19;7.00;99.90
18721;DHT22;9489;50.948;3.114;2022-11-13T07:05:45;7.10;99.90
18721;DHT22;9489;50.948;3.114;2022-11-13T07:08:11;7.00;99.90
18721;DHT22;9489;50.948;3.114;2022-11-13T07:10:38;7.10;99.90
18721;DHT22;9489;50.948;3.114;2022-11-13T07:13:04;7.10;99.90
18721;DHT22;9489;50.948;3.114;2022-11-13T07:15:33;7.20;99.90
18721;DHT22;9489;50.948;3.114;2022-11-13T07:18:00;7.20;99.90
18721;DHT22;9489;50.948;3.114;2022-11-13T07:20:26;7.20;99.90
18721;DHT22;9489;50.948;3.114;2022-11-13T07:22:58;7.20;99.90
18721;DHT22;9489;50.948;3.114;2022-11-13T07:25:24;7.20;99.90
18721;DHT22;9489;50.948;3.114;2022-11-13T07:27:50;7.40;99.90
18721;DHT22;9489;50.948;3.114;2022-11-13T07:30:16;7.60;99.90
18721;DHT22;9489;50.948;3.114;2022-11-13T07:32:41;7.60;99.90
18721;DHT22;9489;50.948;3.114;2022-11-13T07:35:07;7.70;99.90
18721;DHT22;9489;50.948;3.114;2022-11-13T07:37:33;7.80;99.90
18721;DHT22;9489;50.948;3.114;2022-11-13T07:39:59;7.80;99.90
18721;DHT22;9489;50.948;3.114;2022-11-13T07:42:24;8.00;99.90
18721;DHT22;9489;50.948;3.114;2022-11-13T07:44:50;8.00;99.90
18721;DHT22;9489;50.948;3.114;2022-11-13T07:47:15;8.30;99.90
18721;DHT22;9489;50.948;3.114;2022-11-13T07:49:41;8.60;99.90
18721;DHT22;9489;50.948;3.114;2022-11-13T07:52:07;8.90;99.90
18721;DHT22;9489;50.948;3.114;2022-11-13T07:54:32;9.00;99.90
18721;DHT22;9489;50.948;3.114;2022-11-13T07:56:58;9.10;99.90
18721;DHT22;9489;50.948;3.114;2022-11-13T07:59:24;9.30;99.90
18721;DHT22;9489;50.948;3.114;2022-11-13T08:01:49;9.50;99.90
18721;DHT22;9489;50.948;3.114;2022-11-13T08:04:15;9.70;99.90
18721;DHT22;9489;50.948;3.114;2022-11-13T08:06:41;9.90;99.90
18721;DHT22;9489;50.948;3.114;2022-11-13T08:09:06;10.20;99.90
18721;DHT22;9489;50.948;3.114;2022-11-13T08:11:32;10.70;99.90
18721;DHT22;9489;50.948;3.114;2022-11-13T08:13:58;11.40;99.90
18721;DHT22;9489;50.948;3.114;2022-11-13T08:16:23;12.30;99.90
18721;DHT22;9489;50.948;3.114;2022-11-13T08:18:49;13.10;99.90
18721;DHT22;9489;50.948;3.114;2022-11-13T08:21:15;13.80;99.90
18721;DHT22;9489;50.948;3.114;2022-11-13T08:23:41;14.50;99.90
18721;DHT22;9489;50.948;3.114;2022-11-13T08:26:07;15.00;99.90
18721;DHT22;9489;50.948;3.114;2022-11-13T08:28:34;15.70;99.90
18721;DHT22;9489;50.948;3.114;2022-11-13T08:31:00;16.40;99.90
18721;DHT22;9489;50.948;3.114;2022-11-13T08:33:26;17.00;99.90
18721;DHT22;9489;50.948;3.114;2022-11-13T08:35:57;17.60;99.90
18721;DHT22;9489;50.948;3.114;2022-11-13T08:38:23;18.10;99.90
18721;DHT22;9489;50.948;3.114;2022-11-13T08:40:48;18.40;99.90
18721;DHT22;9489;50.948;3.114;2022-11-13T08:43:14;18.90;99.90
18721;DHT22;9489;50.948;3.114;2022-11-13T08:45:40;19.40;99.90
18721;DHT22;9489;50.948;3.114;2022-11-13T08:48:06;19.70;99.90
18721;DHT22;9489;50.948;3.114;2022-11-13T08:50:33;19.80;99.90
18721;DHT22;9489;50.948;3.114;2022-11-13T08:52:59;20.20;99.90
18721;DHT22;9489;50.948;3.114;2022-11-13T08:55:26;20.50;99.90
18721;DHT22;9489;50.948;3.114;2022-11-13T08:57:52;20.70;99.90
18721;DHT22;9489;50.948;3.114;2022-11-13T09:00:19;20.80;99.90
18721;DHT22;9489;50.948;3.114;2022-11-13T09:02:45;20.60;99.90
18721;DHT22;9489;50.948;3.114;2022-11-13T09:05:11;20.60;99.90
18721;DHT22;9489;50.948;3.114;2022-11-13T09:07:36;20.80;99.90
18721;DHT22;9489;50.948;3.114;2022-11-13T09:10:03;20.70;99.90
18721;DHT22;9489;50.948;3.114;2022-11-13T09:12:28;20.90;99.90
18721;DHT22;9489;50.948;3.114;2022-11-13T09:14:54;21.40;99.90
18721;DHT22;9489;50.948;3.114;2022-11-13T09:17:20;21.80;99.90
18721;DHT22;9489;50.948;3.114;2022-11-13T09:19:45;21.90;99.90
18721;DHT22;9489;50.948;3.114;2022-11-13T09:22:11;22.20;99.90
18721;DHT22;9489;50.948;3.114;2022-11-13T09:24:37;22.00;99.90
18721;DHT22;9489;50.948;3.114;2022-11-13T09:27:03;22.10;99.90
18721;DHT22;9489;50.948;3.114;2022-11-13T09:29:28;22.60;99.90
18721;DHT22;9489;50.948;3.114;2022-11-13T09:31:55;23.00;99.90
18721;DHT22;9489;50.948;3.114;2022-11-13T09:34:21;22.90;99.90
18721;DHT22;9489;50.948;3.114;2022-11-13T09:36:47;23.40;99.90
18721;DHT22;9489;50.948;3.114;2022-11-13T09:39:13;23.70;99.90
18721;DHT22;9489;50.948;3.114;2022-11-13T09:42:14;24.00;99.90
18721;DHT22;9489;50.948;3.114;2022-11-13T09:44:42;23.90;99.90
18721;DHT22;9489;50.948;3.114;2022-11-13T09:47:19;24.00;99.90
18721;DHT22;9489;50.948;3.114;2022-11-13T09:49:53;24.20;99.90
18721;DHT22;9489;50.948;3.114;2022-11-13T09:52:29;24.30;99.90
18721;DHT22;9489;50.948;3.114;2022-11-13T09:54:55;23.50;99.90
18721;DHT22;9489;50.948;3.114;2022-11-13T10:00:00;22.90;99.90
18721;DHT22;9489;50.948;3.114;2022-11-13T10:06:03;24.10;99.90
18721;DHT22;9489;50.948;3.114;2022-11-13T10:08:46;24.00;99.90
18721;DHT22;9489;50.948;3.114;2022-11-13T10:11:36;24.40;99.90
18721;DHT22;9489;50.948;3.114;2022-11-13T10:14:22;24.60;99.90
18721;DHT22;9489;50.948;3.114;2022-11-13T10:22:17;22.30;99.90
18721;DHT22;9489;50.948;3.114;2022-11-13T10:24:49;23.00;99.90
18721;DHT22;9489;50.948;3.114;2022-11-13T10:27:15;23.30;99.90
18721;DHT22;9489;50.948;3.114;2022-11-13T10:29:41;22.60;99.90
18721;DHT22;9489;50.948;3.114;2022-11-13T10:32:20;22.20;99.90
18721;DHT22;9489;50.948;3.114;2022-11-13T10:35:27;21.00;99.90
18721;DHT22;9489;50.948;3.114;2022-11-13T10:40:33;21.40;99.90
18721;DHT22;9489;50.948;3.114;2022-11-13T10:45:31;21.70;99.90
18721;DHT22;9489;50.948;3.114;2022-11-13T10:47:56;21.90;99.90
18721;DHT22;9489;50.948;3.114;2022-11-13T10:50:25;21.90;99.90
18721;DHT22;9489;50.948;3.114;2022-11-13T10:52:53;21.90;99.90
18721;DHT22;9489;50.948;3.114;2022-11-13T10:58:11;21.60;99.90
18721;DHT22;9489;50.948;3.114;2022-11-13T11:00:38;21.10;99.90
18721;DHT22;9489;50.948;3.114;2022-11-13T11:03:16;20.60;99.90
18721;DHT22;9489;50.948;3.114;2022-11-13T11:06:01;19.30;99.90
18721;DHT22;9489;50.948;3.114;2022-11-13T11:08:33;18.40;99.90
18721;DHT22;9489;50.948;3.114;2022-11-13T11:11:06;18.20;99.90
18721;DHT22;9489;50.948;3.114;2022-11-13T11:13:50;18.00;99.90
18721;DHT22;9489;50.948;3.114;2022-11-13T11:16:20;17.20;99.90
18721;DHT22;9489;50.948;3.114;2022-11-13T11:19:08;16.30;99.90
18721;DHT22;9489;50.948;3.114;2022-11-13T11:21:36;15.80;99.90
18721;DHT22;9489;50.948;3.114;2022-11-13T11:24:15;15.70;99.90
18721;DHT22;9489;50.948;3.114;2022-11-13T11:26:46;15.50;99.90
18721;DHT22;9489;50.948;3.114;2022-11-13T11:29:20;15.30;99.90
18721;DHT22;9489;50.948;3.114;2022-11-13T11:31:56;15.20;99.90
18721;DHT22;9489;50.948;3.114;2022-11-13T11:37:24;15.30;99.90
18721;DHT22;9489;50.948;3.114;2022-11-13T11:40:16;15.50;99.90
18721;DHT22;9489;50.948;3.114;2022-11-13T11:43:06;16.10;99.90
18721;DHT22;9489;50.948;3.114;2022-11-13T11:45:39;16.40;99.90
18721;DHT22;9489;50.948;3.114;2022-11-13T11:48:27;16.70;99.90
18721;DHT22;9489;50.948;3.114;2022-11-13T11:51:12;16.70;99.90
18721;DHT22;9489;50.948;3.114;2022-11-13T11:56:21;17.00;99.90
18721;DHT22;9489;50.948;3.114;2022-11-13T11:59:01;17.90;99.90
18721;DHT22;9489;50.948;3.114;2022-11-13T12:04:43;21.30;99.90
18721;DHT22;9489;50.948;3.114;2022-11-13T12:15:17;26.20;99.90
18721;DHT22;9489;50.948;3.114;2022-11-13T12:21:36;26.00;99.90
18721;DHT22;9489;50.948;3.114;2022-11-13T12:23:45;25.00;99.90
18721;DHT22;9489;50.948;3.114;2022-11-13T12:26:30;23.60;99.90
18721;DHT22;9489;50.948;3.114;2022-11-13T12:32:10;20.90;99.90
18721;DHT22;9489;50.948;3.114;2022-11-13T12:34:49;20.40;99.90
18721;DHT22;9489;50.948;3.114;2022-11-13T12:37:21;19.20;99.90
18721;DHT22;9489;50.948;3.114;2022-11-13T12:39:56;19.00;99.90
18721;DHT22;9489;50.948;3.114;2022-11-13T12:42:38;18.50;99.90
18721;DHT22;9489;50.948;3.114;2022-11-13T12:45:19;18.40;99.90
18721;DHT22;9489;50.948;3.114;2022-11-13T12:47:46;17.80;99.90
18721;DHT22;9489;50.948;3.114;2022-11-13T12:50:24;17.60;99.90
18721;DHT22;9489;50.948;3.114;2022-11-13T12:53:05;17.50;99.90
18721;DHT22;9489;50.948;3.114;2022-11-13T12:55:34;17.30;99.90
18721;DHT22;9489;50.948;3.114;2022-11-13T13:00:55;17.40;99.90
18721;DHT22;9489;50.948;3.114;2022-11-13T13:03:57;17.40;99.90
18721;DHT22;9489;50.948;3.114;2022-11-13T13:06:52;17.60;99.90
18721;DHT22;9489;50.948;3.114;2022-11-13T13:12:05;17.70;99.90
18721;DHT22;9489;50.948;3.114;2022-11-13T13:17:21;17.50;99.90
18721;DHT22;9489;50.948;3.114;2022-11-13T13:22:39;17.50;99.90
18721;DHT22;9489;50.948;3.114;2022-11-13T13:25:43;17.40;99.90
18721;DHT22;9489;50.948;3.114;2022-11-13T13:30:53;16.80;99.90
18721;DHT22;9489;50.948;3.114;2022-11-13T13:33:50;16.50;99.90
18721;DHT22;9489;50.948;3.114;2022-11-13T13:36:33;16.10;99.90
18721;DHT22;9489;50.948;3.114;2022-11-13T13:42:05;15.60;99.90
18721;DHT22;9489;50.948;3.114;2022-11-13T13:47:30;15.40;99.90
18721;DHT22;9489;50.948;3.114;2022-11-13T13:49:58;15.20;99.90
18721;DHT22;9489;50.948;3.114;2022-11-13T13:52:28;15.10;99.90
18721;DHT22;9489;50.948;3.114;2022-11-13T13:54:55;14.90;99.90
18721;DHT22;9489;50.948;3.114;2022-11-13T13:57:21;14.80;99.90
18721;DHT22;9489;50.948;3.114;2022-11-13T13:59:48;14.70;99.90
18721;DHT22;9489;50.948;3.114;2022-11-13T14:02:16;14.80;99.90
18721;DHT22;9489;50.948;3.114;2022-11-13T14:04:48;14.70;99.90
18721;DHT22;9489;50.948;3.114;2022-11-13T14:07:28;14.60;99.90
18721;DHT22;9489;50.948;3.114;2022-11-13T14:10:13;14.50;99.90
18721;DHT22;9489;50.948;3.114;2022-11-13T14:12:41;14.40;99.90
18721;DHT22;9489;50.948;3.114;2022-11-13T14:15:26;14.40;99.90
18721;DHT22;9489;50.948;3.114;2022-11-13T14:18:06;14.30;99.90
18721;DHT22;9489;50.948;3.114;2022-11-13T14:20:47;14.40;99.90
18721;DHT22;9489;50.948;3.114;2022-11-13T14:23:20;14.20;99.90
18721;DHT22;9489;50.948;3.114;2022-11-13T14:25:46;14.20;99.90
18721;DHT22;9489;50.948;3.114;2022-11-13T14:28:25;14.20;99.90
18721;DHT22;9489;50.948;3.114;2022-11-13T14:31:03;14.00;99.90
18721;DHT22;9489;50.948;3.114;2022-11-13T14:33:36;14.00;99.90
18721;DHT22;9489;50.948;3.114;2022-11-13T14:36:02;14.00;99.90
18721;DHT22;9489;50.948;3.114;2022-11-13T14:38:32;13.80;99.90
18721;DHT22;9489;50.948;3.114;2022-11-13T14:40:59;13.70;99.90
18721;DHT22;9489;50.948;3.114;2022-11-13T14:43:30;13.60;99.90
18721;DHT22;9489;50.948;3.114;2022-11-13T14:45:59;13.60;99.90
18721;DHT22;9489;50.948;3.114;2022-11-13T14:48:27;13.50;99.90
18721;DHT22;9489;50.948;3.114;2022-11-13T14:50:56;13.50;99.90
18721;DHT22;9489;50.948;3.114;2022-11-13T14:56:04;13.30;99.90
18721;DHT22;9489;50.948;3.114;2022-11-13T14:58:38;13.30;99.90
18721;DHT22;9489;50.948;3.114;2022-11-13T15:01:13;13.20;99.90
18721;DHT22;9489;50.948;3.114;2022-11-13T15:03:40;13.20;99.90
18721;DHT22;9489;50.948;3.114;2022-11-13T15:06:18;13.20;99.90
18721;DHT22;9489;50.948;3.114;2022-11-13T15:08:45;13.20;99.90
18721;DHT22;9489;50.948;3.114;2022-11-13T15:11:15;13.10;99.90
18721;DHT22;9489;50.948;3.114;2022-11-13T15:13:42;13.10;99.90
18721;DHT22;9489;50.948;3.114;2022-11-13T15:16:16;13.10;99.90
18721;DHT22;9489;50.948;3.114;2022-11-13T15:18:50;13.00;99.90
18721;DHT22;9489;50.948;3.114;2022-11-13T15:21:16;13.00;99.90
18721;DHT22;9489;50.948;3.114;2022-11-13T15:23:42;13.00;99.90
18721;DHT22;9489;50.948;3.114;2022-11-13T15:26:11;13.00;99.90
18721;DHT22;9489;50.948;3.114;2022-11-13T15:28:37;13.00;99.90
18721;DHT22;9489;50.948;3.114;2022-11-13T15:31:25;13.00;99.90
18721;DHT22;9489;50.948;3.114;2022-11-13T15:33:52;12.90;99.90
18721;DHT22;9489;50.948;3.114;2022-11-13T15:36:18;12.90;99.90
18721;DHT22;9489;50.948;3.114;2022-11-13T15:38:43;12.80;99.90
18721;DHT22;9489;50.948;3.114;2022-11-13T15:41:23;12.80;99.90
18721;DHT22;9489;50.948;3.114;2022-11-13T15:43:52;12.80;99.90
18721;DHT22;9489;50.948;3.114;2022-11-13T15:46:19;12.80;99.90
18721;DHT22;9489;50.948;3.114;2022-11-13T15:48:45;12.80;99.90
18721;DHT22;9489;50.948;3.114;2022-11-13T15:51:29;12.80;99.90
18721;DHT22;9489;50.948;3.114;2022-11-13T15:54:29;12.70;99.90
18721;DHT22;9489;50.948;3.114;2022-11-13T15:56:55;12.70;99.90
18721;DHT22;9489;50.948;3.114;2022-11-13T15:59:21;12.60;99.90
18721;DHT22;9489;50.948;3.114;2022-11-13T16:01:47;12.50;99.90
18721;DHT22;9489;50.948;3.114;2022-11-13T16:04:13;12.40;99.90
18721;DHT22;9489;50.948;3.114;2022-11-13T16:06:41;12.40;99.90
18721;DHT22;9489;50.948;3.114;2022-11-13T16:09:14;12.40;99.90
18721;DHT22;9489;50.948;3.114;2022-11-13T16:11:40;12.40;99.90
18721;DHT22;9489;50.948;3.114;2022-11-13T16:14:06;12.30;99.90
18721;DHT22;9489;50.948;3.114;2022-11-13T16:16:35;12.30;99.90
18721;DHT22;9489;50.948;3.114;2022-11-13T16:19:02;12.20;99.90
18721;DHT22;9489;50.948;3.114;2022-11-13T16:21:29;12.20;99.90
18721;DHT22;9489;50.948;3.114;2022-11-13T16:23:55;12.00;99.90
18721;DHT22;9489;50.948;3.114;2022-11-13T16:26:23;12.00;99.90
18721;DHT22;9489;50.948;3.114;2022-11-13T16:28:50;11.80;99.90
18721;DHT22;9489;50.948;3.114;2022-11-13T16:31:17;11.70;99.90
18721;DHT22;9489;50.948;3.114;2022-11-13T16:33:43;11.70;99.90
18721;DHT22;9489;50.948;3.114;2022-11-13T16:36:29;11.70;99.90
18721;DHT22;9489;50.948;3.114;2022-11-13T16:38:55;11.60;99.90
18721;DHT22;9489;50.948;3.114;2022-11-13T16:41:21;11.60;99.90
18721;DHT22;9489;50.948;3.114;2022-11-13T16:43:48;11.50;99.90
18721;DHT22;9489;50.948;3.114;2022-11-13T16:46:19;11.40;99.90
18721;DHT22;9489;50.948;3.114;2022-11-13T16:48:46;11.30;99.90
18721;DHT22;9489;50.948;3.114;2022-11-13T16:51:12;11.30;99.90
18721;DHT22;9489;50.948;3.114;2022-11-13T16:53:38;11.20;99.90
18721;DHT22;9489;50.948;3.114;2022-11-13T16:56:14;11.20;99.90
18721;DHT22;9489;50.948;3.114;2022-11-13T16:58:40;11.10;99.90
18721;DHT22;9489;50.948;3.114;2022-11-13T17:01:15;11.10;99.90
18721;DHT22;9489;50.948;3.114;2022-11-13T17:03:42;11.00;99.90
18721;DHT22;9489;50.948;3.114;2022-11-13T17:06:20;11.00;99.90
18721;DHT22;9489;50.948;3.114;2022-11-13T17:08:50;10.90;99.90
18721;DHT22;9489;50.948;3.114;2022-11-13T17:11:17;10.90;99.90
18721;DHT22;9489;50.948;3.114;2022-11-13T17:13:47;10.80;99.90
18721;DHT22;9489;50.948;3.114;2022-11-13T17:16:13;10.70;99.90
18721;DHT22;9489;50.948;3.114;2022-11-13T17:18:39;10.70;99.90